createdAt,value
2022-07-31T00:01:52.496Z,0
2022-07-31T00:04:18.582Z,0
2022-07-31T00:06:44.691Z,0
2022-07-31T00:09:10.778Z,0
2022-07-31T00:11:36.865Z,0
2022-07-31T00:14:02.983Z,0
2022-07-31T00:16:29.070Z,0
2022-07-31T00:18:55.150Z,0
2022-07-31T00:21:21.258Z,0
2022-07-31T00:23:47.353Z,0
2022-07-31T00:26:13.440Z,0
2022-07-31T00:28:39.544Z,0
2022-07-31T00:31:05.637Z,0
2022-07-31T00:33:30.743Z,0
2022-07-31T00:35:56.850Z,0
2022-07-31T00:40:49.034Z,0
2022-07-31T00:43:15.131Z,0
2022-07-31T00:45:41.224Z,0
2022-07-31T00:48:07.321Z,0
2022-07-31T00:50:33.414Z,0
2022-07-31T00:52:58.522Z,0
2022-07-31T00:55:23.649Z,0
2022-07-31T00:57:48.771Z,0
2022-07-31T01:00:13.900Z,0
2022-07-31T01:02:39.008Z,0
2022-07-31T01:05:04.116Z,0
2022-07-31T01:07:30.215Z,0
2022-07-31T01:09:56.296Z,0
2022-07-31T01:12:22.405Z,0
2022-07-31T01:14:48.499Z,0
2022-07-31T01:17:14.581Z,0
2022-07-31T01:19:40.695Z,0
2022-07-31T01:22:06.786Z,0
2022-07-31T01:24:32.875Z,0
2022-07-31T01:26:58.976Z,0
2022-07-31T01:29:25.062Z,0
2022-07-31T01:31:51.172Z,0
2022-07-31T01:34:17.282Z,0
2022-07-31T01:36:42.373Z,0
2022-07-31T01:39:08.459Z,0
2022-07-31T01:41:34.567Z,0
2022-07-31T01:44:00.670Z,0
2022-07-31T01:46:26.759Z,0
2022-07-31T01:48:52.862Z,0
2022-07-31T01:51:17.977Z,0
2022-07-31T01:53:43.094Z,0
2022-07-31T01:56:08.237Z,0
2022-07-31T01:58:34.295Z,0
2022-07-31T02:01:00.397Z,0
2022-07-31T02:03:26.500Z,0
2022-07-31T02:05:52.594Z,0
2022-07-31T02:08:18.689Z,0
2022-07-31T02:10:44.777Z,0
2022-07-31T02:13:10.882Z,0
2022-07-31T02:15:36.958Z,0
2022-07-31T02:18:03.068Z,0
2022-07-31T02:20:29.162Z,0
2022-07-31T02:22:55.238Z,0
2022-07-31T02:25:21.353Z,0
2022-07-31T02:27:46.460Z,0
2022-07-31T02:30:12.556Z,0
2022-07-31T02:32:38.664Z,0
2022-07-31T02:35:04.732Z,0
2022-07-31T02:37:30.840Z,0
2022-07-31T02:39:56.937Z,0
2022-07-31T02:42:23.039Z,0
2022-07-31T02:44:48.160Z,0
2022-07-31T02:47:13.251Z,0
2022-07-31T02:49:38.383Z,0
2022-07-31T02:52:03.485Z,0
2022-07-31T02:54:29.583Z,0
2022-07-31T02:56:55.662Z,0
2022-07-31T02:59:21.765Z,0
2022-07-31T03:01:47.860Z,0
2022-07-31T03:04:13.958Z,0
2022-07-31T03:06:40.056Z,0
2022-07-31T03:09:06.150Z,0
2022-07-31T03:11:32.255Z,0
2022-07-31T03:13:58.350Z,0
2022-07-31T03:16:24.446Z,0
2022-07-31T03:18:50.545Z,0
2022-07-31T03:21:16.625Z,4
2022-07-31T03:23:41.740Z,4
2022-07-31T03:26:07.832Z,4
2022-07-31T03:28:33.934Z,8
2022-07-31T03:31:00.078Z,12
2022-07-31T03:33:26.129Z,16
2022-07-31T03:35:52.212Z,20
2022-07-31T03:38:18.303Z,28
2022-07-31T03:40:43.427Z,44
2022-07-31T03:43:08.544Z,68
2022-07-31T03:45:34.635Z,96
2022-07-31T03:48:00.739Z,132
2022-07-31T03:50:26.824Z,168
2022-07-31T03:52:52.929Z,216
2022-07-31T03:55:19.028Z,265
2022-07-31T03:57:45.113Z,313
2022-07-31T04:00:11.211Z,361
2022-07-31T04:02:37.298Z,417
2022-07-31T04:05:03.384Z,481
2022-07-31T04:07:29.484Z,554
2022-07-31T04:09:55.584Z,634
2022-07-31T04:12:21.678Z,714
2022-07-31T04:14:46.781Z,795
2022-07-31T04:17:12.897Z,859
2022-07-31T04:19:38.999Z,935
2022-07-31T04:22:05.088Z,1015
2022-07-31T04:24:31.172Z,1076
2022-07-31T04:26:57.272Z,1120
2022-07-31T04:29:23.383Z,1184
2022-07-31T04:31:48.487Z,1276
2022-07-31T04:34:13.606Z,1337
2022-07-31T04:36:39.706Z,1421
2022-07-31T04:39:05.799Z,1538
2022-07-31T04:41:31.893Z,1670
2022-07-31T04:43:57.987Z,1807
2022-07-31T04:46:24.074Z,1843
2022-07-31T04:48:50.208Z,1967
2022-07-31T04:51:16.274Z,2156
2022-07-31T04:53:42.357Z,2309
2022-07-31T04:56:08.462Z,2513
2022-07-31T04:58:34.556Z,2782
2022-07-31T05:01:00.651Z,3003
2022-07-31T05:03:26.739Z,3148
2022-07-31T05:05:51.863Z,3276
2022-07-31T05:08:17.935Z,3063
2022-07-31T05:10:44.056Z,2867
2022-07-31T05:13:10.136Z,2738
2022-07-31T05:15:36.230Z,2726
2022-07-31T05:18:02.333Z,2863
2022-07-31T05:20:28.440Z,3116
2022-07-31T05:22:53.552Z,3373
2022-07-31T05:25:18.661Z,3782
2022-07-31T05:27:43.783Z,4541
2022-07-31T05:30:08.883Z,4871
2022-07-31T05:32:34.021Z,4786
2022-07-31T05:34:59.104Z,4742
2022-07-31T05:37:24.250Z,4581
2022-07-31T05:39:49.346Z,4601
2022-07-31T05:42:14.471Z,4750
2022-07-31T05:44:39.579Z,4846
2022-07-31T05:47:05.664Z,4979
2022-07-31T05:49:31.777Z,5236
2022-07-31T05:51:57.865Z,5328
2022-07-31T05:54:23.959Z,5377
2022-07-31T05:56:50.064Z,5401
2022-07-31T05:59:16.149Z,5457
2022-07-31T06:01:42.252Z,5742
2022-07-31T06:04:08.326Z,5963
2022-07-31T06:06:34.431Z,6276
2022-07-31T06:09:00.535Z,6553
2022-07-31T06:11:26.628Z,6718
2022-07-31T06:13:52.727Z,6898
2022-07-31T06:16:17.832Z,7111
2022-07-31T06:18:43.928Z,6947
2022-07-31T06:23:36.113Z,6782
2022-07-31T06:26:02.207Z,6959
2022-07-31T06:28:28.312Z,7083
2022-07-31T06:30:54.405Z,7312
2022-07-31T06:33:19.520Z,7429
2022-07-31T06:35:44.629Z,7834
2022-07-31T06:38:09.753Z,7441
2022-07-31T06:40:34.855Z,6702
2022-07-31T06:43:00.961Z,6818
2022-07-31T06:45:27.061Z,7521
2022-07-31T06:47:53.169Z,8051
2022-07-31T06:50:19.259Z,8428
2022-07-31T06:52:45.343Z,8802
2022-07-31T06:55:11.439Z,9380
2022-07-31T06:57:37.558Z,9730
2022-07-31T07:00:03.635Z,9288
2022-07-31T07:02:29.724Z,8902
2022-07-31T07:04:55.830Z,9220
2022-07-31T07:07:21.921Z,9906
2022-07-31T07:09:48.008Z,10324
2022-07-31T07:12:13.118Z,10336
2022-07-31T07:14:39.225Z,10091
2022-07-31T07:17:05.309Z,10011
2022-07-31T07:19:31.409Z,9790
2022-07-31T07:21:57.518Z,10219
2022-07-31T07:24:23.615Z,9862
2022-07-31T07:26:49.685Z,10669
2022-07-31T07:29:14.817Z,11440
2022-07-31T07:31:39.935Z,11713
2022-07-31T07:34:06.036Z,10822
2022-07-31T07:36:31.142Z,11119
2022-07-31T07:38:56.256Z,11464
2022-07-31T07:41:22.352Z,11798
2022-07-31T07:43:48.448Z,11922
2022-07-31T07:46:14.536Z,11838
2022-07-31T07:48:40.644Z,12380
2022-07-31T07:51:06.730Z,12215
2022-07-31T07:53:32.824Z,12079
2022-07-31T07:55:58.921Z,12030
2022-07-31T07:58:25.008Z,12006
2022-07-31T08:00:51.105Z,12324
2022-07-31T08:03:17.210Z,12380
2022-07-31T08:05:43.287Z,12247
2022-07-31T08:08:09.390Z,12609
2022-07-31T08:10:34.503Z,12934
2022-07-31T08:12:59.629Z,13139
2022-07-31T08:15:24.742Z,12424
2022-07-31T08:17:50.822Z,12641
2022-07-31T08:20:16.923Z,12488
2022-07-31T08:22:43.026Z,12653
2022-07-31T08:25:09.162Z,12862
2022-07-31T08:27:35.213Z,12448
2022-07-31T08:30:01.310Z,12408
2022-07-31T08:32:27.411Z,12408
2022-07-31T08:34:53.498Z,12685
2022-07-31T08:37:19.594Z,12986
2022-07-31T08:39:45.679Z,12629
2022-07-31T08:42:11.835Z,12071
2022-07-31T08:44:37.876Z,12223
2022-07-31T08:47:02.990Z,11974
2022-07-31T08:49:29.077Z,11641
2022-07-31T08:51:55.201Z,10276
2022-07-31T08:54:21.264Z,9139
2022-07-31T08:56:47.359Z,7766
2022-07-31T08:59:13.469Z,8465
2022-07-31T09:01:39.556Z,8364
2022-07-31T09:04:04.695Z,8268
2022-07-31T09:06:29.800Z,6220
2022-07-31T09:08:54.947Z,5561
2022-07-31T09:11:20.045Z,5794
2022-07-31T09:13:46.118Z,5023
2022-07-31T09:16:12.211Z,5601
2022-07-31T09:18:38.302Z,5955
2022-07-31T09:21:04.425Z,6766
2022-07-31T09:23:30.499Z,5979
2022-07-31T09:25:56.579Z,5710
2022-07-31T09:30:48.791Z,6095
2022-07-31T09:33:14.891Z,5280
2022-07-31T09:35:40.965Z,4605
2022-07-31T09:38:07.092Z,4112
2022-07-31T09:40:33.186Z,4421
2022-07-31T09:42:58.270Z,4144
2022-07-31T09:45:24.385Z,4429
2022-07-31T09:47:50.455Z,4525
2022-07-31T09:50:16.571Z,4726
2022-07-31T09:55:08.775Z,5882
2022-07-31T09:57:33.893Z,8131
2022-07-31T09:59:58.991Z,9505
2022-07-31T10:02:25.089Z,11123
2022-07-31T10:04:51.191Z,12440
2022-07-31T10:07:17.277Z,13974
2022-07-31T10:09:43.386Z,16239
2022-07-31T10:12:09.476Z,17090
2022-07-31T10:14:35.557Z,14894
2022-07-31T10:19:27.757Z,10452
2022-07-31T10:21:53.847Z,11099
2022-07-31T10:24:19.945Z,8910
2022-07-31T10:26:46.049Z,6678
2022-07-31T10:29:12.142Z,5862
2022-07-31T10:31:37.246Z,5521
2022-07-31T10:34:03.351Z,5332
2022-07-31T10:36:29.435Z,6220
2022-07-31T10:38:55.533Z,6890
2022-07-31T10:41:21.631Z,5501
2022-07-31T10:43:47.739Z,5798
2022-07-31T10:46:13.825Z,5931
2022-07-31T10:48:39.915Z,6240
2022-07-31T10:51:05.037Z,7248
2022-07-31T10:53:30.145Z,8392
2022-07-31T10:55:55.263Z,8505
2022-07-31T10:58:20.377Z,7874
2022-07-31T11:00:46.478Z,7870
2022-07-31T11:03:12.588Z,7955
2022-07-31T11:05:38.695Z,8071
2022-07-31T11:08:04.789Z,7336
2022-07-31T11:10:30.850Z,7702
2022-07-31T11:12:56.964Z,9083
2022-07-31T11:15:23.059Z,9774
2022-07-31T11:17:49.150Z,11641
2022-07-31T11:20:15.255Z,13914
2022-07-31T11:22:41.333Z,13962
2022-07-31T11:25:07.461Z,16488
2022-07-31T11:27:33.545Z,17167
2022-07-31T11:29:58.644Z,16343
2022-07-31T11:32:24.745Z,14131
2022-07-31T11:34:50.844Z,12697
2022-07-31T11:37:16.925Z,12175
2022-07-31T11:39:43.026Z,11464
2022-07-31T11:42:09.129Z,11657
2022-07-31T11:44:35.218Z,14388
2022-07-31T11:47:00.343Z,16496
2022-07-31T11:49:25.450Z,15556
2022-07-31T11:51:50.579Z,15725
2022-07-31T11:54:17.731Z,18407
2022-07-31T11:56:41.781Z,14311
2022-07-31T11:59:07.871Z,36462
2022-07-31T12:01:33.970Z,84554
2022-07-31T12:04:00.129Z,92103
2022-07-31T12:06:26.150Z,60524
2022-07-31T12:08:52.254Z,17540
2022-07-31T12:11:18.364Z,73406
2022-07-31T12:13:44.445Z,14368
2022-07-31T12:16:10.548Z,17733
2022-07-31T12:18:36.645Z,34856
2022-07-31T12:21:02.733Z,18247
2022-07-31T12:23:28.840Z,22809
2022-07-31T12:25:53.950Z,65182
2022-07-31T12:28:20.048Z,72282
2022-07-31T12:30:46.137Z,17765
2022-07-31T12:33:12.225Z,16299
2022-07-31T12:35:38.328Z,21363
2022-07-31T12:38:04.430Z,37586
2022-07-31T12:40:30.517Z,99299
2022-07-31T12:42:55.662Z,34117
2022-07-31T12:45:20.743Z,26856
2022-07-31T12:47:46.846Z,15504
2022-07-31T12:50:11.974Z,25057
2022-07-31T12:52:37.088Z,51561
2022-07-31T12:55:03.190Z,104536
2022-07-31T12:57:29.284Z,84907
2022-07-31T12:59:55.393Z,112824
2022-07-31T13:02:21.473Z,97083
2022-07-31T13:04:47.565Z,104504
2022-07-31T13:07:13.662Z,115073
2022-07-31T13:09:39.756Z,106463
2022-07-31T13:12:05.856Z,27595
2022-07-31T13:14:31.937Z,15641
2022-07-31T13:16:58.063Z,12227
2022-07-31T13:19:24.150Z,11179
2022-07-31T13:21:50.245Z,10790
2022-07-31T13:24:15.345Z,11199
2022-07-31T13:26:41.436Z,20174
2022-07-31T13:29:07.540Z,71607
2022-07-31T13:31:33.641Z,59014
2022-07-31T13:33:59.741Z,105114
2022-07-31T13:36:25.837Z,100038
2022-07-31T13:38:51.941Z,86770
2022-07-31T13:41:17.052Z,97372
2022-07-31T13:43:42.169Z,19757
2022-07-31T13:46:08.254Z,20720
2022-07-31T13:48:34.356Z,29105
2022-07-31T13:51:00.467Z,54292
2022-07-31T13:53:26.540Z,96344
2022-07-31T13:55:52.650Z,103411
2022-07-31T13:58:18.741Z,94834
2022-07-31T14:00:44.848Z,94770
2022-07-31T14:03:10.947Z,97115
2022-07-31T14:05:37.055Z,87445
2022-07-31T14:08:03.127Z,15536
2022-07-31T14:10:29.232Z,13123
2022-07-31T14:12:55.340Z,14709
2022-07-31T14:15:20.442Z,90144
2022-07-31T14:17:46.548Z,89662
2022-07-31T14:20:12.645Z,87638
2022-07-31T14:22:38.733Z,84393
2022-07-31T14:25:04.827Z,13320
2022-07-31T14:27:30.925Z,14042
2022-07-31T14:29:57.012Z,80763
2022-07-31T14:32:22.140Z,17861
2022-07-31T14:34:47.255Z,90208
2022-07-31T14:37:12.369Z,21395
2022-07-31T14:39:37.486Z,86417
2022-07-31T14:42:03.589Z,91043
2022-07-31T14:44:29.687Z,76137
2022-07-31T14:46:55.790Z,74820
2022-07-31T14:49:21.868Z,74402
2022-07-31T14:51:47.966Z,42726
2022-07-31T14:54:14.084Z,42598
2022-07-31T14:56:40.153Z,22648
2022-07-31T14:59:06.276Z,36012
2022-07-31T15:01:32.346Z,18825
2022-07-31T15:03:58.456Z,18825
2022-07-31T15:06:24.550Z,12312
2022-07-31T15:08:50.646Z,10689
2022-07-31T15:11:15.765Z,10709
2022-07-31T15:13:41.863Z,10320
2022-07-31T15:16:07.955Z,9693
2022-07-31T15:18:34.048Z,9248
2022-07-31T15:21:00.151Z,9794
2022-07-31T15:23:26.244Z,12785
2022-07-31T15:25:52.339Z,14657
2022-07-31T15:28:17.469Z,12488
2022-07-31T15:30:42.575Z,10268
2022-07-31T15:33:08.685Z,10814
2022-07-31T15:35:34.777Z,12227
2022-07-31T15:38:00.855Z,16371
2022-07-31T15:40:26.955Z,14223
2022-07-31T15:42:53.055Z,15536
2022-07-31T15:45:19.149Z,17926
2022-07-31T15:47:45.256Z,13870
2022-07-31T15:50:11.334Z,13199
2022-07-31T15:52:37.439Z,14484
2022-07-31T15:55:03.548Z,14336
2022-07-31T15:57:29.631Z,25186
2022-07-31T15:59:55.737Z,14593
2022-07-31T16:02:20.853Z,11525
2022-07-31T16:04:46.947Z,9790
2022-07-31T16:07:13.034Z,8750
2022-07-31T16:09:39.159Z,8673
2022-07-31T16:12:05.237Z,9721
2022-07-31T16:14:31.331Z,9368
2022-07-31T16:16:57.429Z,12689
2022-07-31T16:19:22.548Z,41152
2022-07-31T16:21:47.669Z,42245
2022-07-31T16:24:13.760Z,45843
2022-07-31T16:26:39.864Z,22455
2022-07-31T16:29:05.940Z,12773
2022-07-31T16:31:32.048Z,10340
2022-07-31T16:33:58.140Z,33892
2022-07-31T16:36:24.245Z,10862
2022-07-31T16:38:50.322Z,26278
2022-07-31T16:41:16.428Z,41024
2022-07-31T16:43:42.523Z,32253
2022-07-31T16:46:08.621Z,37137
2022-07-31T16:48:34.719Z,34663
2022-07-31T16:51:00.813Z,16673
2022-07-31T16:53:25.930Z,14018
2022-07-31T16:55:52.020Z,12288
2022-07-31T16:58:18.120Z,23547
2022-07-31T17:00:44.218Z,15046
2022-07-31T17:03:10.302Z,8842
2022-07-31T17:05:36.403Z,7850
2022-07-31T17:08:02.503Z,7123
2022-07-31T17:10:27.617Z,5196
2022-07-31T17:12:52.774Z,4802
2022-07-31T17:15:17.865Z,4895
2022-07-31T17:17:42.965Z,4915
2022-07-31T17:20:09.081Z,4867
2022-07-31T17:22:35.172Z,4164
2022-07-31T17:25:01.267Z,4136
2022-07-31T17:27:27.351Z,4389
2022-07-31T17:29:53.446Z,4762
2022-07-31T17:32:19.545Z,3891
2022-07-31T17:34:45.648Z,3738
2022-07-31T17:37:11.748Z,3521
2022-07-31T17:39:37.845Z,3875
2022-07-31T17:42:03.948Z,4027
2022-07-31T17:44:30.033Z,2883
2022-07-31T17:46:56.129Z,2345
2022-07-31T17:49:21.237Z,2120
2022-07-31T17:51:47.331Z,2003
2022-07-31T17:54:13.418Z,1811
2022-07-31T17:56:39.525Z,1449
2022-07-31T17:59:05.611Z,1501
2022-07-31T18:01:31.712Z,1550
2022-07-31T18:03:57.827Z,1461
2022-07-31T18:06:22.935Z,1357
2022-07-31T18:08:48.039Z,1232
2022-07-31T18:11:14.144Z,1156
2022-07-31T18:13:40.253Z,1052
2022-07-31T18:16:06.331Z,1032
2022-07-31T18:18:32.449Z,995
2022-07-31T18:20:58.544Z,859
2022-07-31T18:23:24.617Z,819
2022-07-31T18:25:50.726Z,859
2022-07-31T18:28:16.819Z,899
2022-07-31T18:30:42.944Z,995
2022-07-31T18:33:09.024Z,1015
2022-07-31T18:35:35.103Z,967
2022-07-31T18:38:01.192Z,859
2022-07-31T18:40:26.318Z,754
2022-07-31T18:42:52.389Z,682
2022-07-31T18:45:18.491Z,574
2022-07-31T18:47:44.594Z,477
2022-07-31T18:50:10.694Z,393
2022-07-31T18:52:36.785Z,317
2022-07-31T18:55:02.902Z,252
2022-07-31T18:57:28.002Z,232
2022-07-31T18:59:53.114Z,212
2022-07-31T19:02:19.213Z,204
2022-07-31T19:04:45.301Z,160
2022-07-31T19:07:11.407Z,124
2022-07-31T19:09:37.514Z,92
2022-07-31T19:12:03.586Z,72
2022-07-31T19:14:29.678Z,52
2022-07-31T19:16:55.773Z,36
2022-07-31T19:19:21.878Z,28
2022-07-31T19:21:47.966Z,20
2022-07-31T19:24:14.074Z,16
2022-07-31T19:26:40.162Z,12
2022-07-31T19:29:06.255Z,8
2022-07-31T19:31:31.370Z,8
2022-07-31T19:33:57.473Z,4
2022-07-31T19:36:23.570Z,4
2022-07-31T19:38:49.656Z,0
2022-07-31T19:41:15.753Z,0
2022-07-31T19:43:41.849Z,0
2022-07-31T19:46:07.942Z,0
2022-07-31T19:48:34.027Z,0
2022-07-31T19:51:00.129Z,0
2022-07-31T19:53:26.253Z,0
2022-07-31T19:55:52.326Z,0
2022-07-31T19:58:18.412Z,0
2022-07-31T20:00:44.516Z,0
2022-07-31T20:03:09.631Z,0
2022-07-31T20:05:35.717Z,0
2022-07-31T20:08:01.823Z,0
2022-07-31T20:10:27.896Z,0
2022-07-31T20:12:53.991Z,0
2022-07-31T20:15:20.105Z,0
2022-07-31T20:17:46.214Z,0
2022-07-31T20:20:12.303Z,0
2022-07-31T20:22:38.380Z,0
2022-07-31T20:25:04.488Z,0
2022-07-31T20:27:30.576Z,0
2022-07-31T20:29:56.681Z,0
2022-07-31T20:32:22.769Z,0
2022-07-31T20:34:47.880Z,0
2022-07-31T20:37:13.979Z,0
2022-07-31T20:39:40.066Z,0
2022-07-31T20:42:06.152Z,0
2022-07-31T20:44:32.259Z,0
2022-07-31T20:46:58.352Z,0
2022-07-31T20:49:24.451Z,0
2022-07-31T20:51:50.560Z,0
2022-07-31T20:54:16.637Z,0
2022-07-31T20:56:42.721Z,0
2022-07-31T20:59:08.836Z,0
2022-07-31T21:01:34.933Z,0
2022-07-31T21:04:01.018Z,0
2022-07-31T21:06:26.138Z,0
2022-07-31T21:08:52.234Z,0
2022-07-31T21:11:18.312Z,0
2022-07-31T21:13:44.415Z,0
2022-07-31T21:16:10.513Z,0
2022-07-31T21:18:36.591Z,0
2022-07-31T21:21:02.705Z,0
2022-07-31T21:23:28.805Z,0
2022-07-31T21:25:54.882Z,0
2022-07-31T21:28:20.971Z,0
2022-07-31T21:30:47.100Z,0
2022-07-31T21:33:13.158Z,0
2022-07-31T21:35:39.268Z,0
2022-07-31T21:38:04.404Z,0
2022-07-31T21:40:30.478Z,0
2022-07-31T21:42:56.563Z,0
2022-07-31T21:45:22.652Z,0
2022-07-31T21:47:48.757Z,0
2022-07-31T21:50:14.850Z,0
2022-07-31T21:52:40.956Z,0
2022-07-31T21:55:07.032Z,0
2022-07-31T21:57:33.136Z,0
2022-07-31T21:59:59.226Z,0
2022-07-31T22:02:25.311Z,0
2022-07-31T22:04:51.413Z,0
2022-07-31T22:07:17.497Z,0
2022-07-31T22:09:42.633Z,0
2022-07-31T22:12:08.715Z,0
2022-07-31T22:14:34.827Z,0
2022-07-31T22:17:00.897Z,0
2022-07-31T22:19:27.007Z,0
2022-07-31T22:21:53.103Z,0
2022-07-31T22:24:19.190Z,0
2022-07-31T22:26:45.303Z,0
2022-07-31T22:29:11.396Z,0
2022-07-31T22:31:37.487Z,0
2022-07-31T22:34:03.571Z,0
2022-07-31T22:36:29.678Z,0
2022-07-31T22:38:55.778Z,0
2022-07-31T22:41:20.883Z,0
2022-07-31T22:43:46.983Z,0
2022-07-31T22:46:13.068Z,0
2022-07-31T22:48:39.177Z,0
2022-07-31T22:51:05.263Z,0
2022-07-31T22:53:31.370Z,0
2022-07-31T22:55:57.444Z,0
2022-07-31T22:58:23.551Z,0
2022-07-31T23:00:49.652Z,0
2022-07-31T23:03:15.747Z,0
2022-07-31T23:05:41.828Z,0
2022-07-31T23:08:07.934Z,0
2022-07-31T23:10:34.014Z,0
2022-07-31T23:12:59.132Z,0
2022-07-31T23:15:25.234Z,0
2022-07-31T23:17:51.327Z,0
2022-07-31T23:20:17.414Z,0
2022-07-31T23:22:43.529Z,0
2022-07-31T23:25:09.616Z,0
2022-07-31T23:27:35.701Z,0
2022-07-31T23:30:01.799Z,0
2022-07-31T23:32:27.947Z,0
2022-07-31T23:34:53.997Z,0
2022-07-31T23:37:20.070Z,0
2022-07-31T23:39:46.175Z,0
2022-07-31T23:42:12.271Z,0
2022-07-31T23:44:37.377Z,0
2022-07-31T23:47:03.479Z,0
2022-07-31T23:49:29.573Z,0
2022-07-31T23:51:55.663Z,0
2022-07-31T23:54:21.761Z,0
2022-07-31T23:56:47.862Z,0
2022-07-31T23:59:13.948Z,0
